Terminal Aerodrome Forecast
Issued by NWS

Home | Current Version | Previous Version | Text Only | Print | Product List | Glossary Off
Versions: 1 2 3 4 5 6 7 8 9 10 11 12 13 14 15 16 17 18 19 20 21 22 23 24 25 26 27 28 29 30 31 32 33 34 35

656
FTUS43 KLOT 160304 AAA
TAFDPA
TAF AMD
KDPA 160304Z 1603/1624 29017G28KT P6SM OVC015
     FM160700 30013G20KT P6SM SCT012 BKN018
     FM161300 33012KT P6SM BKN012
     FM161900 02007KT P6SM SCT020 BKN180
     FM162200 11004KT P6SM SCT120 BKN180=

USA.gov is the U.S. government's official web portal to all federal, state and local government web resources and services.